Latest Weather Observations for Gympie

IDQ60901

Issued at 12:12 pm EST Monday 27 June 2016 (issued every 10 minutes, with the page automatically refreshed every 10 minutes)

About weather observations | Map of Brisbane area stations | Latest observations for Brisbane area | Other Formats
Station Details ID: 040093 Name: GYMPIE Lat: -26.18 Lon: 152.64 Height: 64.5 m
Data from the previous 72 hours. | See also: Recent months at Gympie
Date/Time
EST
Temp
°C
App
Temp
°C
Dew
Point
°C
Rel
Hum
%
Delta-T
°C
Wind Press
QNH
hPa
Press
MSL
hPa
Rain since
9am
mm
Dir  Spd
km/h
Gust
km/h
Spd
kts
Gust
kts
27/12:00pm 17.6 16.3 13.7 78 2.2 WNW 13 19 7 10 1015.7 1015.6 0.0
27/11:30am 17.2 16.7 13.7 80 2.0 WNW 9 15 5 8 1016.1 1016.1 0.0
27/11:00am 17.3 17.8 14.0 81 1.9 NW 4 11 2 6 1016.4 1016.4 0.0
27/10:30am 16.1 16.7 14.3 89 1.0 W 4 6 2 3 1017.1 1017.1 0.0
27/10:00am 15.7 16.9 13.9 89 1.0 CALM 0 2 0 1 1017.2 1017.2 0.0
27/09:30am 14.7 16.0 14.1 96 0.3 CALM 0 0 0 0 1017.3 1017.3 0.0
27/09:00am 13.7 14.7 13.2 97 0.3 CALM 0 0 0 0 1017.7 1017.7 0.8
27/08:30am 13.1 13.6 12.8 98 0.2 SE 2 4 1 2 1017.8 1017.8 0.6
27/08:00am 12.9 13.7 12.4 97 0.3 CALM 0 0 0 0 1017.7 1017.7 0.6
27/07:30am 12.8 13.5 12.3 97 0.3 CALM 0 0 0 0 1017.7 1017.7 0.4
27/07:00am 12.6 12.9 12.1 97 0.3 N 2 4 1 2 1017.3 1017.3 0.0
27/06:30am 12.6 13.2 11.8 95 0.4 CALM 0 0 0 0 1016.6 1016.6 0.0
27/06:00am 12.6 13.1 11.7 94 0.5 CALM 0 0 0 0 1016.2 1016.2 0.0
27/05:30am 12.8 13.3 11.7 93 0.6 CALM 0 4 0 2 1016.3 1016.3 0.0
27/05:00am 12.6 13.1 11.5 93 0.6 CALM 0 4 0 2 1015.8 1015.7 0.0
27/04:30am 12.4 12.9 11.5 94 0.5 CALM 0 0 0 0 1015.7 1015.6 0.0
27/04:00am 12.4 12.8 11.3 93 0.6 CALM 0 0 0 0 1015.6 1015.5 0.0
27/03:30am 12.6 13.0 11.3 92 0.7 CALM 0 0 0 0 1015.7 1015.6 0.0
27/03:00am 12.5 12.5 11.2 92 0.7 N 2 2 1 1 1015.6 1015.5 0.0
27/02:30am 12.3 12.6 11.0 92 0.7 CALM 0 0 0 0 1016.1 1016.1 0.0
27/02:00am 12.5 12.5 11.2 92 0.7 NE 2 2 1 1 1016.2 1016.2 0.0
27/01:30am 12.5 12.9 11.1 91 0.7 CALM 0 0 0 0 1016.6 1016.6 0.0
27/01:00am 12.5 12.9 11.1 91 0.7 CALM 0 0 0 0 1016.8 1016.8 0.0
27/12:30am 12.4 12.7 11.0 91 0.7 CALM 0 0 0 0 1017.1 1017.1 0.0
27/12:00am 12.7 13.1 11.1 90 0.8 CALM 0 0 0 0 1017.2 1017.2 0.0
 
Date/Time
EST
Temp
°C
App
Temp
°C
Dew
Point
°C
Rel
Hum
%
Delta-T
°C
Wind Press
QNH
hPa
Press
MSL
hPa
Rain since
9am
mm
Dir  Spd
km/h
Gust
km/h
Spd
kts
Gust
kts
26/11:30pm 12.6 13.0 11.2 91 0.7 CALM 0 0 0 0 1017.3 1017.3 0.0
26/11:00pm 12.6 12.9 10.8 89 0.9 CALM 0 0 0 0 1017.2 1017.2 0.0
26/10:30pm 12.7 13.0 10.9 89 0.9 CALM 0 0 0 0 1017.5 1017.5 0.0
26/10:00pm 13.5 13.8 11.0 85 1.3 CALM 0 0 0 0 1017.6 1017.6 0.0
26/09:30pm 13.4 13.8 11.1 86 1.2 CALM 0 0 0 0 1018.0 1018.0 0.0
26/09:00pm 13.9 14.2 10.9 82 1.6 CALM 0 0 0 0 1018.3 1018.3 0.0
26/08:30pm 13.9 14.1 10.7 81 1.7 CALM 0 0 0 0 1018.4 1018.4 0.0
26/08:00pm 14.4 14.7 11.0 80 1.8 CALM 0 0 0 0 1018.4 1018.4 0.0
26/07:30pm 14.7 14.8 10.1 74 2.4 CALM 0 0 0 0 1018.4 1018.4 0.0
26/07:00pm 15.0 15.1 10.0 72 2.6 CALM 0 0 0 0 1018.5 1018.5 0.0
26/06:30pm 15.4 15.6 10.4 72 2.6 CALM 0 0 0 0 1018.2 1018.2 0.0
26/06:00pm 15.5 15.6 10.1 70 2.8 CALM 0 0 0 0 1018.0 1018.0 0.0
26/05:30pm 16.0 16.1 10.1 68 3.1 CALM 0 2 0 1 1017.6 1017.6 0.0
26/05:00pm 16.7 15.4 10.1 65 3.5 E 7 13 4 7 1017.1 1017.1 0.0
26/04:30pm 17.5 16.2 9.2 58 4.3 ENE 6 6 3 3 1016.9 1016.9 0.0
26/04:00pm 17.9 16.9 9.0 56 4.6 ENE 4 7 2 4 1016.8 1016.8 0.0
26/03:30pm 18.4 17.3 8.4 52 5.2 NE 4 7 2 4 1016.6 1016.6 0.0
26/03:00pm 18.7 17.1 8.1 50 5.5 NE 6 9 3 5 1016.7 1016.7 0.0
26/02:30pm 18.8 17.1 8.2 50 5.5 NNE 7 11 4 6 1017.2 1017.2 0.0
26/02:00pm 19.3 18.1 8.0 48 5.8 NNE 4 13 2 7 1017.3 1017.3 0.0
26/01:30pm 18.8 17.5 7.6 48 5.7 NE 4 9 2 5 1017.7 1017.7 0.0
26/01:00pm 18.2 16.4 7.0 48 5.6 NNE 6 9 3 5 1018.3 1018.3 0.0
26/12:30pm 17.9 16.4 6.7 48 5.6 NE 4 7 2 4 1019.0 1019.0 0.0
26/12:00pm 18.4 17.2 8.1 51 5.3 SW 4 6 2 3 1019.9 1019.9 0.0
26/11:30am 17.7 16.7 7.2 50 5.3 SSE 2 4 1 2 1020.1 1020.1 0.0
26/11:00am 15.3 13.3 4.4 48 5.1 SSW 4 6 2 3 1020.8 1020.8 0.0
26/10:30am 14.3 13.2 4.9 53 4.4 CALM 0 4 0 2 1020.9 1020.9 0.0
26/10:00am 11.6 9.5 3.9 59 3.4 SSW 4 6 2 3 1021.2 1021.2 0.0
26/09:30am 10.2 8.4 5.4 72 2.2 SSE 4 6 2 3 1021.3 1021.3 0.0
26/09:00am 7.7 6.6 5.2 84 1.1 CALM 0 2 0 1 1021.8 1021.8 0.0
26/08:30am 5.4 3.8 4.4 93 0.4 SSE 2 4 1 2 1022.0 1022.0 0.0
26/08:00am 3.9 2.5 3.5 97 0.2 CALM 0 0 0 0 1021.5 1021.5 0.0
26/07:30am 2.0 0.3 1.9 99 0.0 CALM 0 0 0 0 1021.8 1021.8 0.0
26/07:00am 1.0 -0.8 0.9 99 0.0 CALM 0 0 0 0 1021.8 1021.8 0.0
26/06:30am 0.5 -1.4 0.4 99 0.0 CALM 0 0 0 0 1021.1 1021.1 0.0
26/06:00am 0.8 -1.1 0.7 99 0.0 CALM 0 0 0 0 1020.7 1020.7 0.0
26/05:30am 0.8 -1.1 0.5 98 0.1 CALM 0 0 0 0 1020.0 1020.0 0.0
26/05:00am 1.1 -0.7 1.0 99 0.0 CALM 0 0 0 0 1019.6 1019.6 0.0
26/04:30am 1.0 -0.8 0.9 99 0.0 CALM 0 0 0 0 1019.7 1019.7 0.0
26/04:00am 1.1 -0.7 1.0 99 0.0 CALM 0 0 0 0 1019.4 1019.4 0.0
26/03:30am 1.1 -0.8 0.8 98 0.1 CALM 0 0 0 0 1019.0 1019.0 0.0
26/03:00am 1.4 -0.8 1.1 98 0.1 N 2 6 1 3 1019.1 1019.1 0.0
26/02:30am 1.1 -0.8 0.7 97 0.1 CALM 0 0 0 0 1019.8 1019.8 0.0
26/02:00am 1.7 -0.1 1.4 98 0.1 CALM 0 0 0 0 1019.3 1019.3 0.0
26/01:30am 2.2 0.5 1.8 97 0.2 CALM 0 0 0 0 1019.7 1019.7 0.0
26/01:00am 2.4 0.7 1.7 95 0.3 CALM 0 0 0 0 1019.7 1019.7 0.0
26/12:30am 2.6 0.9 1.7 94 0.3 CALM 0 0 0 0 1019.9 1019.9 0.0
26/12:00am 2.6 0.9 1.6 93 0.4 CALM 0 0 0 0 1019.9 1019.9 0.0
 
Date/Time
EST
Temp
°C
App
Temp
°C
Dew
Point
°C
Rel
Hum
%
Delta-T
°C
Wind Press
QNH
hPa
Press
MSL
hPa
Rain since
9am
mm
Dir  Spd
km/h
Gust
km/h
Spd
kts
Gust
kts
25/11:30pm 3.2 1.6 2.2 93 0.4 CALM 0 0 0 0 1020.1 1020.1 0.0
25/11:00pm 3.5 1.9 2.5 93 0.4 CALM 0 0 0 0 1020.4 1020.4 0.0
25/10:30pm 3.9 2.3 2.6 91 0.5 CALM 0 0 0 0 1020.6 1020.6 0.0
25/10:00pm 4.3 2.8 2.8 90 0.6 CALM 0 0 0 0 1020.7 1020.7 0.0
25/09:30pm 5.1 3.7 3.6 90 0.6 CALM 0 0 0 0 1020.5 1020.5 0.0
25/09:00pm 5.7 3.9 3.7 87 0.8 N 2 4 1 2 1020.4 1020.4 0.0
25/08:30pm 6.0 3.8 3.3 83 1.1 NNE 4 6 2 3 1020.2 1020.2 0.0
25/08:00pm 7.1 5.7 3.5 78 1.5 CALM 0 0 0 0 1019.8 1019.8 0.0
25/07:30pm 7.7 5.8 3.0 72 2.0 NW 2 4 1 2 1019.6 1019.6 0.0
25/07:00pm 10.1 7.8 2.9 61 3.1 W 4 6 2 3 1019.4 1019.4 0.0
25/06:30pm 10.7 8.3 2.0 55 3.7 WSW 4 4 2 2 1018.9 1018.9 0.0
25/06:00pm 11.6 9.6 2.4 53 4.0 SW 2 4 1 2 1018.5 1018.5 0.0
25/05:30pm 13.3 10.7 1.0 43 5.2 SSW 4 7 2 4 1018.2 1018.2 0.0
25/05:00pm 15.3 12.2 0.3 36 6.4 SSW 6 9 3 5 1017.8 1017.8 0.0
25/04:30pm 17.5 14.7 -0.2 30 7.6 WSW 4 7 2 4 1017.5 1017.5 0.0
25/04:00pm 18.4 15.7 0.1 29 8.0 SW 4 6 2 3 1017.0 1017.0 0.0
25/03:30pm 18.3 15.3 0.9 31 7.7 SSW 6 9 3 5 1016.9 1016.9 0.0
25/03:00pm 18.6 15.4 -0.2 28 8.2 W 6 13 3 7 1016.8 1016.8 0.0
25/02:30pm 18.2 15.1 0.4 30 7.8 SSW 6 9 3 5 1016.8 1016.8 0.0
25/02:00pm 18.6 16.0 1.2 31 7.8 E 4 6 2 3 1017.0 1017.0 0.0
25/01:30pm 17.4 14.0 -0.3 30 7.6 SW 7 13 4 7 1017.4 1017.4 0.0
25/01:00pm 17.1 14.4 0.3 32 7.3 SW 4 15 2 8 1017.6 1017.6 0.0
25/12:30pm 17.1 14.0 1.1 34 7.1 S 7 11 4 6 1018.2 1018.2 0.0
25/12:00pm 16.6 13.7 1.5 36 6.7 SW 6 13 3 7 1018.8 1018.8 0.0
25/11:30am 16.2 13.2 0.7 35 6.7 S 6 15 3 8 1019.3 1019.3 0.0
25/11:00am 15.2 11.1 -0.1 35 6.5 SSW 11 22 6 12 1019.4 1019.4 0.0
25/10:30am 15.1 11.1 0.5 37 6.3 SW 11 20 6 11 1019.6 1019.6 0.0
25/10:00am 14.2 10.2 0.5 39 5.8 S 11 19 6 10 1019.6 1019.6 0.0
25/09:30am 13.3 8.5 0.0 40 5.5 SSW 15 30 8 16 1019.8 1019.8 0.0
25/09:00am 12.8 9.6 0.9 44 5.0 SSW 7 13 4 7 1019.6 1019.6 0.0
25/08:30am 12.1 9.2 1.4 48 4.5 SSW 6 9 3 5 1019.5 1019.5 0.0
25/08:00am 11.1 9.6 5.2 67 2.7 S 2 6 1 3 1019.5 1019.5 0.0
25/07:30am 8.2 6.4 3.7 73 1.9 NNE 2 6 1 3 1019.2 1019.2 0.0
25/07:00am 6.5 5.1 3.3 80 1.3 CALM 0 0 0 0 1018.6 1018.6 0.0
25/06:30am 7.0 5.6 3.6 79 1.4 CALM 0 0 0 0 1018.2 1018.2 0.0
25/06:00am 7.7 5.5 3.2 73 1.9 SSW 4 6 2 3 1017.8 1017.8 0.0
25/05:30am 8.4 6.1 2.8 68 2.4 NE 4 6 2 3 1017.4 1017.4 0.0
25/05:00am 9.9 7.9 2.5 60 3.2 SSW 2 6 1 3 1016.7 1016.7 0.0
25/04:30am 10.2 7.5 2.8 60 3.2 SSW 6 9 3 5 1016.3 1016.3 0.0
25/04:00am 11.4 8.3 1.4 50 4.2 SSW 7 15 4 8 1015.9 1015.9 0.0
25/03:30am 11.7 9.0 2.5 53 4.0 SSW 6 13 3 7 1015.8 1015.7 0.0
25/03:00am 12.2 9.4 3.2 54 4.0 SSW 7 17 4 9 1015.6 1015.5 0.0
25/02:30am 12.8 10.2 4.0 55 4.0 SSW 7 20 4 11 1015.3 1015.2 0.0
25/02:00am 13.3 10.7 4.2 54 4.2 SW 7 13 4 7 1015.3 1015.2 0.0
25/01:30am 13.1 10.6 4.5 56 3.9 SW 7 13 4 7 1015.3 1015.2 0.0
25/01:00am 14.5 11.6 4.5 51 4.6 WSW 9 17 5 9 1015.3 1015.2 0.0
25/12:30am 15.2 11.5 4.6 49 5.0 W 13 24 7 13 1015.4 1015.3 0.0
25/12:00am 15.6 12.7 4.9 49 5.1 W 9 17 5 9 1015.5 1015.4 0.0
 
Date/Time
EST
Temp
°C
App
Temp
°C
Dew
Point
°C
Rel
Hum
%
Delta-T
°C
Wind Press
QNH
hPa
Press
MSL
hPa
Rain since
9am
mm
Dir  Spd
km/h
Gust
km/h
Spd
kts
Gust
kts
24/11:30pm 15.6 13.1 4.6 48 5.2 W 7 17 4 9 1015.6 1015.5 0.0
24/11:00pm 16.1 13.8 4.8 47 5.3 SW 6 13 3 7 1015.5 1015.4 0.0
24/10:30pm 16.8 13.7 5.4 47 5.5 SW 11 20 6 11 1015.4 1015.3 0.0
24/10:00pm 17.4 13.8 6.6 49 5.3 SW 15 33 8 18 1015.4 1015.3 0.0
24/09:30pm 17.8 13.9 7.0 49 5.4 SW 17 28 9 15 1015.0 1014.9 0.0
24/09:00pm 18.2 14.0 7.6 50 5.4 SW 19 32 10 17 1014.7 1014.6 0.0
24/08:30pm 18.4 15.5 8.1 51 5.3 SW 13 22 7 12 1014.5 1014.4 0.0
24/08:00pm 18.8 17.0 9.6 55 4.9 WSW 9 19 5 10 1014.2 1014.1 0.0
24/07:30pm 19.3 16.5 10.0 55 5.0 SW 15 22 8 12 1014.0 1013.9 0.0
24/07:00pm 19.8 17.6 10.8 56 4.9 SW 13 30 7 16 1013.7 1013.6 0.0
24/06:30pm 20.1 18.3 10.8 55 5.1 SW 11 28 6 15 1013.2 1013.1 0.0
24/06:00pm 20.8 19.0 10.9 53 5.4 SW 11 22 6 12 1012.7 1012.6 0.0
24/05:30pm 21.6 19.8 11.0 51 5.9 SW 11 22 6 12 1012.1 1012.0 0.0
24/05:00pm 22.1 21.0 10.6 48 6.3 WSW 7 11 4 6 1011.4 1011.3 0.0
24/04:30pm 23.2 21.4 10.9 46 6.8 W 11 20 6 11 1010.9 1010.8 0.0
24/04:00pm 23.5 21.8 11.2 46 6.9 W 11 19 6 10 1010.6 1010.5 0.0
24/03:30pm 23.6 21.8 12.0 48 6.6 WNW 13 22 7 12 1010.6 1010.5 0.0
24/03:00pm 23.6 21.0 12.0 48 6.6 WNW 17 30 9 16 1010.8 1010.7 0.0
24/02:30pm 23.4 21.3 12.4 50 6.3 W 15 37 8 20 1010.9 1010.8 0.0
24/02:00pm 23.1 21.3 13.3 54 5.7 W 15 22 8 12 1011.2 1011.1 0.0
24/01:30pm 22.6 20.0 13.1 55 5.5 WNW 19 30 10 16 1011.4 1011.3 0.0
24/01:00pm 22.1 19.3 13.2 57 5.1 WNW 20 37 11 20 1011.8 1011.7 0.0
24/12:30pm 22.6 21.0 13.9 58 5.1 WSW 15 33 8 18 1012.2 1012.1 0.0

Latest Capital City Observations: Canberra | Sydney | Melbourne | Brisbane | Adelaide | Perth | Hobart | Darwin

Other Formats:

Comma delimited format used in spreadsheet applications
http://www.bom.gov.au/fwo/IDQ60901/IDQ60901.94566.axf

JavaScript Object Notation format (JSON) in row-major order
http://www.bom.gov.au/fwo/IDQ60901/IDQ60901.94566.json